createdAt,value
2019-02-16T00:01:30.299Z,10.40
2019-02-16T00:03:58.843Z,11.10
2019-02-16T00:06:26.902Z,9.77
2019-02-16T00:08:54.933Z,9.83
2019-02-16T00:11:23.380Z,10.20
2019-02-16T00:13:51.478Z,11.00
2019-02-16T00:16:19.421Z,11.60
2019-02-16T00:18:47.352Z,11.87
2019-02-16T00:21:15.331Z,11.93
2019-02-16T00:23:43.411Z,10.60
2019-02-16T00:26:12.765Z,11.73
2019-02-16T00:28:40.843Z,11.50
2019-02-16T00:31:08.880Z,11.43
2019-02-16T00:33:36.952Z,11.43
2019-02-16T00:36:04.898Z,10.83
2019-02-16T00:38:32.932Z,12.63
2019-02-16T00:41:01.079Z,12.57
2019-02-16T00:43:29.075Z,11.73
2019-02-16T00:45:57.018Z,12.07
2019-02-16T00:48:25.074Z,12.17
2019-02-16T00:50:53.116Z,12.57
2019-02-16T00:53:21.162Z,12.67
2019-02-16T00:55:49.149Z,12.23
2019-02-16T00:58:17.154Z,13.67
2019-02-16T01:00:46.283Z,13.50
2019-02-16T01:03:14.354Z,11.90
2019-02-16T01:05:42.468Z,12.23
2019-02-16T01:08:10.435Z,13.10
2019-02-16T01:10:38.376Z,12.57
2019-02-16T01:13:06.383Z,13.40
2019-02-16T01:15:34.345Z,13.00
2019-02-16T01:18:02.289Z,13.30
2019-02-16T01:20:30.289Z,12.60
2019-02-16T01:23:01.440Z,13.93
2019-02-16T01:25:29.481Z,13.40
2019-02-16T01:27:57.468Z,14.40
2019-02-16T01:30:25.406Z,14.10
2019-02-16T01:32:53.437Z,12.97
2019-02-16T01:35:21.604Z,13.63
2019-02-16T01:37:49.815Z,13.63
2019-02-16T01:40:17.828Z,13.37
2019-02-16T01:42:45.959Z,15.70
2019-02-16T01:45:14.039Z,14.27
2019-02-16T01:47:42.038Z,15.20
2019-02-16T01:50:10.195Z,15.77
2019-02-16T01:52:38.349Z,14.73
2019-02-16T01:55:07.541Z,14.50
2019-02-16T01:57:35.641Z,17.47
2019-02-16T02:00:04.053Z,15.97
2019-02-16T02:02:33.321Z,15.10
2019-02-16T02:05:01.908Z,15.87
2019-02-16T02:07:30.012Z,15.50
2019-02-16T02:09:58.056Z,16.00
2019-02-16T02:12:26.555Z,15.87
2019-02-16T02:14:55.472Z,15.90
2019-02-16T02:17:24.035Z,15.80
2019-02-16T02:19:52.129Z,15.73
2019-02-16T02:22:20.266Z,15.47
2019-02-16T02:24:48.332Z,15.67
2019-02-16T02:27:16.450Z,16.20
2019-02-16T02:29:44.533Z,15.27
2019-02-16T02:32:12.470Z,15.47
2019-02-16T02:34:40.600Z,14.87
2019-02-16T02:37:08.744Z,14.83
2019-02-16T02:39:36.812Z,15.47
2019-02-16T02:42:04.886Z,16.17
2019-02-16T02:44:34.452Z,15.70
2019-02-16T02:47:02.584Z,15.83
2019-02-16T02:49:33.022Z,16.03
2019-02-16T02:52:01.108Z,17.40
2019-02-16T02:54:31.382Z,16.30
2019-02-16T02:56:59.601Z,15.27
2019-02-16T02:59:27.806Z,17.03
2019-02-16T03:01:55.849Z,16.70
2019-02-16T03:04:23.908Z,17.97
2019-02-16T03:06:53.084Z,17.47
2019-02-16T03:09:21.239Z,17.00
2019-02-16T03:11:49.322Z,17.87
2019-02-16T03:14:17.390Z,16.53
2019-02-16T03:16:45.454Z,17.27
2019-02-16T03:19:14.011Z,17.90
2019-02-16T03:21:42.050Z,17.73
2019-02-16T03:24:10.254Z,16.73
2019-02-16T03:26:46.474Z,17.67
2019-02-16T03:29:32.414Z,16.40
2019-02-16T03:32:10.244Z,17.77
2019-02-16T03:34:44.302Z,17.80
2019-02-16T03:37:29.142Z,15.77
2019-02-16T03:39:58.261Z,17.10
2019-02-16T03:42:26.386Z,16.87
2019-02-16T03:44:54.445Z,17.57
2019-02-16T03:47:22.436Z,17.17
2019-02-16T03:49:50.465Z,16.70
2019-02-16T03:52:18.866Z,17.40
2019-02-16T03:54:48.493Z,16.93
2019-02-16T03:57:16.620Z,17.37
2019-02-16T03:59:44.695Z,16.07
2019-02-16T04:02:12.750Z,17.17
2019-02-16T04:04:40.876Z,16.80
2019-02-16T04:07:08.965Z,17.13
2019-02-16T04:09:37.101Z,17.07
2019-02-16T04:12:05.562Z,17.37
2019-02-16T04:14:34.228Z,16.57
2019-02-16T04:17:02.644Z,17.77
2019-02-16T04:19:30.911Z,18.17
2019-02-16T04:21:59.125Z,18.40
2019-02-16T04:24:27.422Z,18.17
2019-02-16T04:26:55.414Z,17.70
2019-02-16T04:29:23.496Z,18.07
2019-02-16T04:31:51.528Z,17.47
2019-02-16T04:34:19.615Z,16.87
2019-02-16T04:36:47.769Z,18.93
2019-02-16T04:39:15.835Z,17.17
2019-02-16T04:41:43.822Z,17.80
2019-02-16T04:44:13.454Z,17.93
2019-02-16T04:46:43.305Z,17.17
2019-02-16T04:49:11.306Z,19.77
2019-02-16T04:51:40.304Z,18.30
2019-02-16T04:54:09.763Z,19.27
2019-02-16T04:56:38.032Z,18.57
2019-02-16T04:59:06.456Z,17.87
2019-02-16T05:01:34.833Z,17.60
2019-02-16T05:04:05.100Z,17.33
2019-02-16T05:06:33.255Z,18.67
2019-02-16T05:09:03.905Z,18.70
2019-02-16T05:11:32.312Z,18.93
2019-02-16T05:14:03.047Z,18.50
2019-02-16T05:16:32.216Z,18.37
2019-02-16T05:19:00.184Z,17.60
2019-02-16T05:21:28.179Z,18.90
2019-02-16T05:23:57.872Z,17.70
2019-02-16T05:26:25.864Z,17.53
2019-02-16T05:28:53.820Z,19.17
2019-02-16T05:31:22.085Z,19.80
2019-02-16T05:33:50.147Z,18.17
2019-02-16T05:36:18.126Z,17.77
2019-02-16T05:38:49.041Z,17.90
2019-02-16T05:41:17.203Z,17.23
2019-02-16T05:43:45.639Z,18.20
2019-02-16T05:46:13.623Z,18.70
2019-02-16T05:48:47.669Z,18.20
2019-02-16T05:51:15.691Z,17.67
2019-02-16T05:53:45.744Z,16.83
2019-02-16T05:56:13.758Z,17.23
2019-02-16T05:58:41.727Z,18.47
2019-02-16T06:01:09.736Z,18.60
2019-02-16T06:03:39.417Z,17.40
2019-02-16T06:06:07.460Z,17.07
2019-02-16T06:08:35.611Z,17.60
2019-02-16T06:11:05.688Z,17.37
2019-02-16T06:13:33.370Z,18.80
2019-02-16T06:16:01.302Z,18.30
2019-02-16T06:18:29.317Z,17.47
2019-02-16T06:20:57.341Z,18.03
2019-02-16T06:23:25.358Z,17.40
2019-02-16T06:25:53.382Z,18.00
2019-02-16T06:28:21.441Z,17.87
2019-02-16T06:30:49.529Z,18.13
2019-02-16T06:33:17.620Z,18.77
2019-02-16T06:35:51.131Z,19.03
2019-02-16T06:38:19.133Z,18.17
2019-02-16T06:40:47.088Z,17.53
2019-02-16T06:43:15.210Z,18.07
2019-02-16T06:45:43.236Z,18.50
2019-02-16T06:48:11.553Z,19.00
2019-02-16T06:50:39.722Z,20.47
2019-02-16T06:53:13.179Z,19.03
2019-02-16T06:55:49.675Z,17.93
2019-02-16T06:58:17.887Z,18.23
2019-02-16T07:00:46.759Z,18.33
2019-02-16T07:03:14.796Z,18.80
2019-02-16T07:05:44.393Z,19.40
2019-02-16T07:08:12.411Z,17.93
2019-02-16T07:10:40.525Z,18.13
2019-02-16T07:13:09.054Z,19.23
2019-02-16T07:15:38.233Z,19.03
2019-02-16T07:18:20.698Z,19.60
2019-02-16T07:20:48.718Z,19.13
2019-02-16T07:23:22.580Z,19.27
2019-02-16T07:25:48.449Z,19.27
2019-02-16T07:28:16.436Z,19.20
2019-02-16T07:30:44.658Z,19.20
2019-02-16T07:33:12.853Z,18.73
2019-02-16T07:35:40.925Z,18.20
2019-02-16T07:38:09.037Z,16.33
2019-02-16T07:40:36.985Z,17.07
2019-02-16T07:43:04.938Z,15.63
2019-02-16T07:46:00.759Z,15.90
2019-02-16T07:48:39.071Z,14.93
2019-02-16T07:51:18.835Z,16.87
2019-02-16T07:54:04.240Z,16.13
2019-02-16T07:57:07.175Z,16.33
2019-02-16T07:59:51.696Z,16.10
2019-02-16T08:02:24.375Z,16.43
2019-02-16T08:05:14.467Z,17.00
2019-02-16T08:08:04.821Z,16.47
2019-02-16T08:10:51.836Z,16.73
2019-02-16T08:13:37.897Z,17.17
2019-02-16T08:16:36.861Z,16.27
2019-02-16T08:19:32.704Z,17.07
2019-02-16T08:22:12.700Z,17.30
2019-02-16T08:25:02.519Z,17.57
2019-02-16T08:28:01.688Z,17.07
2019-02-16T08:30:48.724Z,16.53
2019-02-16T08:33:37.419Z,16.37
2019-02-16T08:36:23.522Z,17.03
2019-02-16T08:39:25.621Z,16.70
2019-02-16T08:42:24.428Z,16.20
2019-02-16T08:45:20.662Z,17.07
2019-02-16T08:48:06.803Z,17.17
2019-02-16T08:50:52.315Z,15.50
2019-02-16T08:53:29.257Z,16.50
2019-02-16T08:56:22.077Z,17.37
2019-02-16T08:59:08.296Z,18.10
2019-02-16T09:01:52.152Z,17.47
2019-02-16T09:04:38.334Z,17.03
2019-02-16T09:07:20.633Z,16.10
2019-02-16T09:10:06.477Z,16.57
2019-02-16T09:13:11.956Z,17.67
2019-02-16T09:15:57.843Z,17.63
2019-02-16T09:19:11.548Z,16.07
2019-02-16T09:22:02.146Z,17.53
2019-02-16T09:24:45.245Z,17.93
2019-02-16T09:27:35.400Z,17.40
2019-02-16T09:30:25.461Z,17.40
2019-02-16T09:33:24.509Z,17.10
2019-02-16T09:36:17.460Z,16.13
2019-02-16T09:38:55.114Z,16.57
2019-02-16T09:41:45.100Z,18.23
2019-02-16T09:44:30.706Z,17.30
2019-02-16T09:47:16.211Z,17.43
2019-02-16T09:50:12.794Z,16.27
2019-02-16T09:53:05.767Z,16.90
2019-02-16T09:55:52.703Z,17.07
2019-02-16T09:58:30.327Z,17.33
2019-02-16T10:01:32.758Z,18.07
2019-02-16T10:04:21.051Z,18.03
2019-02-16T10:07:06.667Z,18.20
2019-02-16T10:09:54.801Z,17.70
2019-02-16T10:12:50.963Z,16.63
2019-02-16T10:15:40.896Z,16.67
2019-02-16T10:18:26.610Z,17.17
2019-02-16T10:21:13.951Z,17.70
2019-02-16T10:24:01.058Z,16.80
2019-02-16T10:26:46.941Z,16.80
2019-02-16T10:29:34.136Z,17.60
2019-02-16T10:32:27.306Z,16.43
2019-02-16T10:35:13.119Z,18.00
2019-02-16T10:38:03.279Z,17.77
2019-02-16T10:40:56.607Z,16.77
2019-02-16T10:43:36.088Z,17.13
2019-02-16T10:46:24.338Z,17.67
2019-02-16T10:49:11.322Z,18.37
2019-02-16T10:51:48.982Z,17.07
2019-02-16T10:54:45.181Z,17.50
2019-02-16T10:57:24.254Z,16.13
2019-02-16T11:00:11.342Z,17.13
2019-02-16T11:03:01.032Z,17.33
2019-02-16T11:05:57.334Z,16.80
2019-02-16T11:08:33.014Z,16.30
2019-02-16T11:11:21.100Z,16.07
2019-02-16T11:14:06.892Z,17.10
2019-02-16T11:16:55.419Z,17.57
2019-02-16T11:19:51.580Z,16.80
2019-02-16T11:22:25.889Z,17.50
2019-02-16T11:25:24.787Z,17.60
2019-02-16T11:28:11.662Z,16.83
2019-02-16T11:30:58.794Z,16.17
2019-02-16T11:33:38.943Z,16.70
2019-02-16T11:36:18.067Z,16.50
2019-02-16T11:39:03.628Z,17.07
2019-02-16T11:41:37.208Z,17.00
2019-02-16T11:44:24.211Z,18.03
2019-02-16T11:47:20.321Z,17.07
2019-02-16T11:50:07.371Z,16.83
2019-02-16T11:53:06.616Z,17.73
2019-02-16T11:55:56.899Z,18.63
2019-02-16T11:58:58.985Z,17.90
2019-02-16T12:01:43.017Z,17.47
2019-02-16T12:04:18.398Z,17.50
2019-02-16T12:07:04.008Z,17.33
2019-02-16T12:09:41.029Z,17.10
2019-02-16T12:12:18.277Z,17.27
2019-02-16T12:15:01.469Z,17.63
2019-02-16T12:17:54.604Z,19.07
2019-02-16T12:20:34.125Z,17.60
2019-02-16T12:23:20.148Z,17.23
2019-02-16T12:26:02.045Z,16.53
2019-02-16T12:29:01.000Z,17.30
2019-02-16T12:31:51.087Z,16.90
2019-02-16T12:34:47.397Z,16.63
2019-02-16T12:37:30.490Z,15.77
2019-02-16T12:40:26.685Z,13.30
2019-02-16T12:43:29.093Z,16.00
2019-02-16T12:46:14.660Z,16.07
2019-02-16T12:49:01.794Z,14.50
2019-02-16T12:51:43.606Z,16.37
2019-02-16T12:54:27.403Z,16.57
2019-02-16T12:57:23.295Z,16.87
2019-02-16T13:00:02.420Z,16.77
2019-02-16T13:03:01.561Z,14.50
2019-02-16T13:05:48.551Z,12.37
2019-02-16T13:08:38.580Z,12.87
2019-02-16T13:11:12.584Z,16.13
2019-02-16T13:14:14.962Z,15.97
2019-02-16T13:17:11.014Z,16.87
2019-02-16T13:20:07.302Z,17.17
2019-02-16T13:22:57.386Z,16.00
2019-02-16T13:25:31.443Z,15.00
2019-02-16T13:28:23.378Z,16.93
2019-02-16T13:30:59.614Z,17.17
2019-02-16T13:33:45.499Z,16.47
2019-02-16T13:36:44.530Z,15.90
2019-02-16T13:39:34.784Z,15.73
2019-02-16T13:42:20.241Z,17.03
2019-02-16T13:45:02.933Z,15.63
2019-02-16T13:47:36.028Z,17.00
2019-02-16T13:50:32.911Z,16.63
2019-02-16T13:53:18.879Z,16.57
2019-02-16T13:56:05.992Z,17.47
2019-02-16T13:58:42.550Z,17.27
2019-02-16T14:01:20.571Z,16.57
2019-02-16T14:04:22.497Z,17.47
2019-02-16T14:07:08.276Z,16.07
2019-02-16T14:10:04.489Z,17.03
2019-02-16T14:12:57.562Z,15.93
2019-02-16T14:15:40.207Z,16.10
2019-02-16T14:18:08.240Z,16.33
2019-02-16T14:20:36.139Z,16.93
2019-02-16T14:23:04.050Z,16.80
2019-02-16T14:25:43.855Z,16.60
2019-02-16T14:28:08.673Z,17.60
2019-02-16T14:30:36.591Z,17.90
2019-02-16T14:33:04.512Z,18.13
2019-02-16T14:35:32.400Z,18.30
2019-02-16T14:38:19.761Z,18.23
2019-02-16T14:40:47.761Z,18.97
2019-02-16T14:43:15.691Z,19.63
2019-02-16T14:45:43.669Z,18.13
2019-02-16T14:48:11.932Z,17.37
2019-02-16T14:50:40.081Z,17.80
2019-02-16T14:53:08.019Z,19.93
2019-02-16T14:55:36.003Z,20.97
2019-02-16T14:58:04.365Z,19.20
2019-02-16T15:00:32.322Z,19.67
2019-02-16T15:03:00.265Z,21.37
2019-02-16T15:05:28.163Z,20.10
2019-02-16T15:07:56.081Z,20.53
2019-02-16T15:10:24.082Z,20.93
2019-02-16T15:12:52.134Z,21.70
2019-02-16T15:15:20.065Z,20.43
2019-02-16T15:17:48.009Z,21.50
2019-02-16T15:20:16.029Z,21.17
2019-02-16T15:22:43.965Z,21.00
2019-02-16T15:25:11.876Z,21.17
2019-02-16T15:27:39.936Z,21.23
2019-02-16T15:30:09.653Z,20.83
2019-02-16T15:32:37.552Z,21.80
2019-02-16T15:35:05.718Z,21.97
2019-02-16T15:37:33.800Z,21.17
2019-02-16T15:40:01.903Z,22.10
2019-02-16T15:42:29.907Z,21.90
2019-02-16T15:44:57.831Z,21.53
2019-02-16T15:47:25.836Z,23.07
2019-02-16T15:49:53.813Z,20.97
2019-02-16T15:52:21.709Z,21.23
2019-02-16T15:54:49.672Z,21.87
2019-02-16T15:57:17.764Z,22.43
2019-02-16T15:59:46.084Z,21.77
2019-02-16T16:02:14.034Z,23.30
2019-02-16T16:04:41.981Z,22.47
2019-02-16T16:07:14.660Z,22.30
2019-02-16T16:10:00.733Z,23.00
2019-02-16T16:12:50.705Z,21.37
2019-02-16T16:15:44.855Z,21.40
2019-02-16T16:18:47.127Z,22.03
2019-02-16T16:21:36.879Z,22.73
2019-02-16T16:24:22.266Z,23.33
2019-02-16T16:27:09.186Z,23.03
2019-02-16T16:29:56.261Z,24.60
2019-02-16T16:32:41.771Z,22.50
2019-02-16T16:35:41.070Z,21.53
2019-02-16T16:38:19.995Z,23.40
2019-02-16T16:41:05.606Z,23.37
2019-02-16T16:43:55.800Z,24.07
2019-02-16T16:46:45.589Z,24.00
2019-02-16T16:49:38.884Z,23.43
2019-02-16T16:52:34.961Z,25.50
2019-02-16T16:55:31.146Z,24.23
2019-02-16T16:58:15.247Z,23.93
2019-02-16T17:01:00.884Z,23.90
2019-02-16T17:03:40.920Z,24.57
2019-02-16T17:06:17.873Z,23.67
2019-02-16T17:09:04.805Z,25.10
2019-02-16T17:11:58.857Z,26.67
2019-02-16T17:14:54.959Z,25.40
2019-02-16T17:17:54.350Z,24.10
2019-02-16T17:20:47.403Z,24.53
2019-02-16T17:23:40.695Z,24.83
2019-02-16T17:26:26.606Z,26.30
2019-02-16T17:29:22.830Z,23.73
2019-02-16T17:32:02.293Z,24.27
2019-02-16T17:34:42.860Z,25.07
2019-02-16T17:37:38.897Z,25.20
2019-02-16T17:40:16.614Z,25.87
2019-02-16T17:42:54.392Z,26.97
2019-02-16T17:45:44.373Z,26.33
2019-02-16T17:48:46.652Z,26.20
2019-02-16T17:51:39.647Z,26.80
2019-02-16T17:54:36.032Z,26.50
2019-02-16T17:57:26.197Z,28.00
2019-02-16T18:00:01.603Z,27.23
2019-02-16T18:02:43.493Z,26.77
2019-02-16T18:05:35.894Z,26.83
2019-02-16T18:08:21.696Z,27.10
2019-02-16T18:11:14.534Z,26.73
2019-02-16T18:14:04.506Z,27.37
2019-02-16T18:16:50.715Z,25.07
2019-02-16T18:19:30.122Z,26.47
2019-02-16T18:22:12.782Z,26.50
2019-02-16T18:25:05.597Z,25.87
2019-02-16T18:27:58.371Z,26.40
2019-02-16T18:30:39.287Z,27.17
2019-02-16T18:33:16.889Z,27.77
2019-02-16T18:36:03.927Z,28.57
2019-02-16T18:38:49.716Z,28.77
2019-02-16T18:41:39.992Z,28.37
2019-02-16T18:44:26.920Z,26.70
2019-02-16T18:47:13.955Z,28.57
2019-02-16T18:50:19.387Z,28.27
2019-02-16T18:53:12.194Z,26.80
2019-02-16T18:55:59.207Z,27.03
2019-02-16T18:58:38.370Z,28.47
2019-02-16T19:01:37.247Z,26.70
2019-02-16T19:04:39.664Z,28.03
2019-02-16T19:07:32.520Z,27.43
2019-02-16T19:10:31.578Z,27.03
2019-02-16T19:13:09.147Z,27.40
2019-02-16T19:16:05.456Z,28.83
2019-02-16T19:18:52.549Z,27.90
2019-02-16T19:21:45.600Z,30.30
2019-02-16T19:24:31.497Z,28.73
2019-02-16T19:27:27.424Z,29.73
2019-02-16T19:30:07.809Z,28.90
2019-02-16T19:32:48.477Z,28.10
2019-02-16T19:35:38.446Z,28.93
2019-02-16T19:38:25.457Z,28.13
2019-02-16T19:41:15.731Z,31.77
2019-02-16T19:43:49.681Z,30.33
2019-02-16T19:46:42.811Z,29.67
2019-02-16T19:49:16.814Z,30.50
2019-02-16T19:52:04.402Z,30.77
2019-02-16T19:54:54.149Z,29.53
2019-02-16T19:57:40.886Z,30.23
2019-02-16T20:00:22.335Z,36.23
2019-02-16T20:03:12.322Z,35.17
2019-02-16T20:05:59.434Z,33.53
2019-02-16T20:08:32.963Z,32.47
2019-02-16T20:11:20.071Z,32.33
2019-02-16T20:13:55.908Z,33.10
2019-02-16T20:16:41.986Z,31.60
2019-02-16T20:19:29.005Z,32.63
2019-02-16T20:22:19.036Z,31.30
2019-02-16T20:25:04.778Z,33.97
2019-02-16T20:27:44.128Z,32.50
2019-02-16T20:30:29.776Z,32.13
2019-02-16T20:33:12.848Z,33.40
2019-02-16T20:36:15.224Z,33.07
2019-02-16T20:39:08.273Z,34.80
2019-02-16T20:42:10.413Z,35.67
2019-02-16T20:45:00.347Z,34.60
2019-02-16T20:47:34.161Z,33.13
2019-02-16T20:50:20.786Z,34.43
2019-02-16T20:53:16.971Z,32.90
2019-02-16T20:56:22.011Z,32.10
2019-02-16T20:59:16.816Z,31.80
2019-02-16T21:01:55.833Z,33.63
2019-02-16T21:04:34.667Z,32.03
2019-02-16T21:07:30.793Z,34.43
2019-02-16T21:10:13.843Z,34.37
2019-02-16T21:12:55.864Z,33.00
2019-02-16T21:15:46.024Z,34.20
2019-02-16T21:18:36.050Z,33.33
2019-02-16T21:21:26.121Z,34.33
2019-02-16T21:24:24.971Z,33.80
2019-02-16T21:27:10.611Z,34.30
2019-02-16T21:30:06.862Z,35.53
2019-02-16T21:32:56.537Z,33.67
2019-02-16T21:35:48.304Z,32.73
2019-02-16T21:38:36.812Z,33.23
2019-02-16T21:41:10.122Z,33.23
2019-02-16T21:44:00.164Z,32.87
2019-02-16T21:46:40.973Z,34.93
2019-02-16T21:49:35.319Z,32.47
2019-02-16T21:52:31.553Z,30.97
2019-02-16T21:55:05.387Z,34.53
2019-02-16T21:57:55.456Z,34.30
2019-02-16T22:00:42.613Z,34.80
2019-02-16T22:03:28.430Z,30.93
2019-02-16T22:06:30.856Z,31.50
2019-02-16T22:09:20.895Z,32.67
2019-02-16T22:12:17.031Z,34.97
2019-02-16T22:14:44.987Z,34.33
2019-02-16T22:17:12.936Z,35.20
2019-02-16T22:19:40.901Z,35.27
2019-02-16T22:22:08.880Z,34.73
2019-02-16T22:24:36.774Z,34.53
2019-02-16T22:27:04.683Z,32.17
2019-02-16T22:29:32.673Z,33.57
2019-02-16T22:32:00.555Z,34.27
2019-02-16T22:34:28.596Z,35.43
2019-02-16T22:36:56.571Z,37.37
2019-02-16T22:39:24.491Z,35.70
2019-02-16T22:41:52.435Z,34.43
2019-02-16T22:44:20.414Z,35.70
2019-02-16T22:46:51.051Z,36.63
2019-02-16T22:49:19.055Z,42.63
2019-02-16T22:51:47.079Z,36.17
2019-02-16T22:54:15.369Z,38.23
2019-02-16T22:56:43.409Z,40.30
2019-02-16T22:59:11.378Z,40.37
2019-02-16T23:01:39.572Z,40.30
2019-02-16T23:04:07.530Z,39.93
2019-02-16T23:06:35.668Z,39.97
2019-02-16T23:09:05.564Z,37.30
2019-02-16T23:11:33.726Z,39.60
2019-02-16T23:14:01.646Z,38.40
2019-02-16T23:16:29.661Z,40.53
2019-02-16T23:18:57.669Z,37.80
2019-02-16T23:21:25.603Z,37.17
2019-02-16T23:23:53.603Z,37.27
2019-02-16T23:26:21.516Z,35.10
2019-02-16T23:28:49.436Z,38.33
2019-02-16T23:31:17.410Z,35.80
2019-02-16T23:33:45.312Z,37.57
2019-02-16T23:36:13.513Z,37.07
2019-02-16T23:38:41.884Z,35.13
2019-02-16T23:41:09.854Z,36.37
2019-02-16T23:43:37.882Z,37.27
2019-02-16T23:46:05.831Z,35.23
2019-02-16T23:48:34.163Z,38.53
2019-02-16T23:51:02.174Z,41.33
2019-02-16T23:53:30.103Z,41.10
2019-02-16T23:55:58.079Z,41.63
2019-02-16T23:58:26.060Z,49.83
